Time;durP1;ratioP1;P1;durP2;ratioP2;P2;SDS_P1;SDS_P2;PMS_P1;PMS_P2;Temp;Humidity;BMP_temperature;BMP_pressure;BME280_temperature;BME280_humidity;BME280_pressure;Samples;Min_cycle;Max_cycle;Signal;HPM_P1;HPM_P2
2022/11/25 00:01:21;;;;;;;17.37;8.37;;;;;;;;;;5016595;28;20036;-78
2022/11/25 00:03:48;;;;;;;17.57;8.73;;;;;;;;;;5034566;28;20033;-78
2022/11/25 00:06:22;;;;;;;13.90;7.57;;;;;;;;;;5016749;28;20144;-77
2022/11/25 00:08:55;;;;;;;15.93;7.87;;;;;;;;;;5015870;28;20029;-77
2022/11/25 00:11:20;;;;;;;13.53;8.53;;;;;;;;;;5034035;28;20029;-78
2022/11/25 00:13:47;;;;;;;16.40;7.70;;;;;;;;;;5016364;28;20121;-78
2022/11/25 00:16:15;;;;;;;16.17;8.33;;;;;;;;;;5032528;28;20094;-78
2022/11/25 00:18:49;;;;;;;15.53;9.37;;;;;;;;;;5015911;28;20458;-77
2022/11/25 00:21:17;;;;;;;14.23;7.40;;;;;;;;;;5016343;28;20030;-77
2022/11/25 00:23:43;;;;;;;15.87;7.67;;;;;;;;;;5034204;28;20374;-78
2022/11/25 00:26:16;;;;;;;16.77;7.90;;;;;;;;;;5033412;28;20476;-79
2022/11/25 00:28:43;;;;;;;12.10;7.20;;;;;;;;;;5033707;28;20071;-78
2022/11/25 00:31:14;;;;;;;19.00;7.90;;;;;;;;;;5034067;28;20021;-77
2022/11/25 00:33:40;;;;;;;16.65;7.22;;;;;;;;;;5034281;28;20104;-77
2022/11/25 00:36:19;;;;;;;14.17;8.87;;;;;;;;;;5034126;28;20140;-77
2022/11/25 00:38:46;;;;;;;14.97;6.80;;;;;;;;;;5016165;28;20457;-78
2022/11/25 00:46:41;;;;;;;15.67;7.67;;;;;;;;;;5033765;28;20091;-77
2022/11/25 00:49:06;;;;;;;13.33;8.33;;;;;;;;;;5015616;28;20026;-77
2022/11/25 00:51:32;;;;;;;23.03;7.30;;;;;;;;;;5033516;28;20024;-78
2022/11/25 00:53:57;;;;;;;18.27;7.93;;;;;;;;;;5015849;28;20025;-77
2022/11/25 00:56:23;;;;;;;17.70;8.07;;;;;;;;;;5033517;28;20022;-78
2022/11/25 00:58:48;;;;;;;11.00;7.43;;;;;;;;;;5033168;28;20109;-77
2022/11/25 01:01:14;;;;;;;17.87;8.33;;;;;;;;;;5033260;28;20033;-77
2022/11/25 01:03:40;;;;;;;18.10;9.53;;;;;;;;;;5032976;28;20021;-78
2022/11/25 01:06:10;;;;;;;15.30;7.73;;;;;;;;;;5014146;28;20187;-78
2022/11/25 01:08:37;;;;;;;15.37;7.47;;;;;;;;;;5033431;28;20021;-77
2022/11/25 01:11:09;;;;;;;15.90;6.97;;;;;;;;;;5033664;28;20487;-77
2022/11/25 01:13:35;;;;;;;15.07;7.63;;;;;;;;;;5034677;28;20029;-79
2022/11/25 01:16:02;;;;;;;13.47;7.83;;;;;;;;;;5017042;28;20025;-78
2022/11/25 01:18:28;;;;;;;16.47;8.10;;;;;;;;;;5015951;28;20485;-78
2022/11/25 01:20:54;;;;;;;21.27;7.83;;;;;;;;;;5033787;28;20031;-76
2022/11/25 01:23:19;;;;;;;13.80;7.10;;;;;;;;;;5033431;28;20077;-77
2022/11/25 01:25:45;;;;;;;12.70;5.90;;;;;;;;;;5015804;28;20025;-78
2022/11/25 01:28:10;;;;;;;17.73;7.67;;;;;;;;;;5034499;28;20028;-77
2022/11/25 01:30:35;;;;;;;12.70;6.40;;;;;;;;;;5015699;28;20379;-77
2022/11/25 01:33:01;;;;;;;11.50;6.70;;;;;;;;;;5016936;28;20351;-77
2022/11/25 01:35:26;;;;;;;12.37;7.07;;;;;;;;;;5015924;28;20441;-80
2022/11/25 01:37:52;;;;;;;12.10;7.43;;;;;;;;;;5033419;28;20431;-78
2022/11/25 01:40:17;;;;;;;16.90;7.00;;;;;;;;;;5015664;28;20556;-77
2022/11/25 01:42:47;;;;;;;12.63;6.50;;;;;;;;;;5033846;28;20401;-78
2022/11/25 01:45:21;;;;;;;16.10;8.10;;;;;;;;;;5015653;28;20127;-76
2022/11/25 01:47:48;;;;;;;17.50;8.47;;;;;;;;;;5015090;28;20116;-78
2022/11/25 01:50:20;;;;;;;16.63;7.70;;;;;;;;;;5015698;28;20099;-77
2022/11/25 01:52:47;;;;;;;;;;;;;;;;;;5034112;28;20030;-77
2022/11/25 01:55:24;;;;;;;13.30;6.80;;;;;;;;;;5033417;28;19947;-77
2022/11/25 01:57:54;;;;;;;14.93;7.90;;;;;;;;;;5033609;28;20036;-78
2022/11/25 02:00:20;;;;;;;16.83;7.53;;;;;;;;;;5015485;28;20029;-78
2022/11/25 02:02:48;;;;;;;15.60;7.97;;;;;;;;;;5033410;28;20109;-78
2022/11/25 02:05:16;;;;;;;12.40;6.70;;;;;;;;;;5015960;28;20057;-77
2022/11/25 02:07:45;;;;;;;16.83;7.33;;;;;;;;;;5036748;28;20037;-77
2022/11/25 02:10:15;;;;;;;17.20;8.20;;;;;;;;;;5017130;28;20037;-77
2022/11/25 02:12:43;;;;;;;16.17;7.63;;;;;;;;;;5033801;28;20067;-77
2022/11/25 02:15:09;;;;;;;14.53;7.27;;;;;;;;;;5015296;28;20045;-78
2022/11/25 02:17:34;;;;;;;15.07;7.07;;;;;;;;;;5032462;28;20533;-78
2022/11/25 02:20:09;;;;;;;12.40;6.70;;;;;;;;;;5014726;28;20115;-77
2022/11/25 02:22:46;;;;;;;15.47;8.13;;;;;;;;;;5033057;28;20032;-78
2022/11/25 02:25:22;;;;;;;14.33;7.50;;;;;;;;;;5016206;28;20018;-77
2022/11/25 02:27:53;;;;;;;16.53;7.70;;;;;;;;;;5027419;28;20052;-77
2022/11/25 02:30:18;;;;;;;15.60;8.07;;;;;;;;;;5033608;28;20021;-77
2022/11/25 02:32:45;;;;;;;18.87;8.07;;;;;;;;;;5032882;28;20112;-78
2022/11/25 02:35:27;;;;;;;18.27;8.07;;;;;;;;;;5032435;28;20100;-77
2022/11/25 02:37:58;;;;;;;16.03;8.20;;;;;;;;;;5032099;28;20408;-78
2022/11/25 02:40:25;;;;;;;15.13;7.67;;;;;;;;;;5032369;28;20029;-78
2022/11/25 02:42:52;;;;;;;14.07;7.90;;;;;;;;;;5032171;28;20080;-78
2022/11/25 02:45:24;;;;;;;16.73;7.00;;;;;;;;;;5014645;28;20033;-79
2022/11/25 02:47:50;;;;;;;14.10;8.07;;;;;;;;;;5032171;28;20018;-78
2022/11/25 02:50:15;;;;;;;16.30;7.83;;;;;;;;;;5014500;28;20032;-78
2022/11/25 02:52:41;;;;;;;15.27;7.70;;;;;;;;;;5025424;28;20025;-77
2022/11/25 02:55:07;;;;;;;17.33;8.00;;;;;;;;;;5033640;28;20021;-78
2022/11/25 02:57:32;;;;;;;20.70;8.70;;;;;;;;;;5035370;28;20029;-77
2022/11/25 02:59:58;;;;;;;17.70;8.97;;;;;;;;;;5052133;28;20030;-79
2022/11/25 03:02:23;;;;;;;13.13;9.00;;;;;;;;;;5051150;28;20060;-78
2022/11/25 03:04:49;;;;;;;18.70;8.40;;;;;;;;;;5033929;28;20068;-79
2022/11/25 03:07:14;;;;;;;16.93;8.00;;;;;;;;;;5018641;28;20027;-77
2022/11/25 03:09:40;;;;;;;14.77;7.97;;;;;;;;;;5014616;28;20025;-78
2022/11/25 03:12:17;;;;;;;18.93;8.27;;;;;;;;;;5032597;28;20033;-79
2022/11/25 03:14:43;;;;;;;19.73;7.87;;;;;;;;;;5018483;28;20485;-78
2022/11/25 03:17:08;;;;;;;17.03;8.40;;;;;;;;;;5046774;28;20074;-78
2022/11/25 03:19:34;;;;;;;15.70;7.80;;;;;;;;;;5014482;28;20496;-78
2022/11/25 03:21:59;;;;;;;16.07;7.70;;;;;;;;;;5032391;28;20027;-77
2022/11/25 03:24:25;;;;;;;17.27;8.47;;;;;;;;;;5031585;28;20478;-77
2022/11/25 03:26:50;;;;;;;19.17;9.33;;;;;;;;;;5013016;28;20361;-78
2022/11/25 03:29:16;;;;;;;17.13;8.87;;;;;;;;;;5028401;28;20025;-78
2022/11/25 03:31:41;;;;;;;19.07;8.13;;;;;;;;;;5030158;28;20425;-76
2022/11/25 03:34:07;;;;;;;13.97;7.70;;;;;;;;;;5030319;28;20017;-77
2022/11/25 03:36:32;;;;;;;20.50;8.90;;;;;;;;;;5012728;28;20060;-77
2022/11/25 03:38:57;;;;;;;25.20;9.17;;;;;;;;;;5012377;28;20462;-77
2022/11/25 03:41:23;;;;;;;16.37;8.60;;;;;;;;;;5012959;28;20458;-78
2022/11/25 03:43:48;;;;;;;18.03;8.20;;;;;;;;;;5028929;28;20481;-78
2022/11/25 03:46:14;;;;;;;15.53;9.17;;;;;;;;;;5012667;28;20060;-77
2022/11/25 03:48:40;;;;;;;17.73;9.20;;;;;;;;;;5012228;28;20021;-77
2022/11/25 03:51:05;;;;;;;13.27;8.07;;;;;;;;;;5012463;28;20033;-78
2022/11/25 03:53:31;;;;;;;16.27;8.27;;;;;;;;;;5030250;28;20071;-78
2022/11/25 03:55:56;;;;;;;15.57;7.80;;;;;;;;;;5012088;28;20053;-77
2022/11/25 03:58:22;;;;;;;17.17;7.67;;;;;;;;;;5012280;28;20033;-77
2022/11/25 04:00:47;;;;;;;19.27;7.77;;;;;;;;;;5030048;28;20029;-79
2022/11/25 04:03:13;;;;;;;25.57;8.70;;;;;;;;;;5030098;28;20028;-78
2022/11/25 04:05:39;;;;;;;13.77;7.43;;;;;;;;;;5029905;28;20493;-78
2022/11/25 04:08:04;;;;;;;12.80;6.97;;;;;;;;;;5013161;28;20022;-77
2022/11/25 04:10:30;;;;;;;21.37;9.20;;;;;;;;;;5031428;28;20025;-78
2022/11/25 04:12:55;;;;;;;16.93;7.73;;;;;;;;;;5029870;28;20482;-77
2022/11/25 04:15:21;;;;;;;17.00;6.90;;;;;;;;;;5028598;28;20025;-78
2022/11/25 04:17:46;;;;;;;19.93;7.60;;;;;;;;;;5011821;28;20065;-77
2022/11/25 04:20:13;;;;;;;13.77;6.80;;;;;;;;;;5012067;28;20033;-78
2022/11/25 04:22:39;;;;;;;18.27;8.37;;;;;;;;;;5011682;28;20409;-78
2022/11/25 04:25:05;;;;;;;19.80;7.60;;;;;;;;;;5029947;28;20033;-77
2022/11/25 04:27:30;;;;;;;14.83;6.80;;;;;;;;;;5011992;28;20121;-78
2022/11/25 04:29:56;;;;;;;13.73;7.40;;;;;;;;;;5029968;28;20132;-76
2022/11/25 04:32:21;;;;;;;17.67;8.90;;;;;;;;;;5012669;28;20033;-77
2022/11/25 04:34:47;;;;;;;16.13;7.40;;;;;;;;;;5012583;28;20351;-76
2022/11/25 04:37:13;;;;;;;13.87;6.80;;;;;;;;;;5012871;28;20079;-77
2022/11/25 04:39:38;;;;;;;15.90;7.17;;;;;;;;;;5012059;28;20030;-78
2022/11/25 04:44:47;;;;;;;14.70;8.10;;;;;;;;;;5034175;28;20381;-77
2022/11/25 04:47:13;;;;;;;13.20;7.03;;;;;;;;;;5034070;28;20034;-77
2022/11/25 04:49:38;;;;;;;18.10;8.60;;;;;;;;;;5015551;28;20440;-78
2022/11/25 04:52:04;;;;;;;13.77;7.40;;;;;;;;;;5033342;28;20099;-77
2022/11/25 04:54:29;;;;;;;13.73;7.37;;;;;;;;;;5015117;28;20061;-78
2022/11/25 04:56:55;;;;;;;16.30;6.63;;;;;;;;;;5015010;28;20033;-77
2022/11/25 04:59:39;;;;;;;10.77;7.33;;;;;;;;;;5014079;28;20026;-78
2022/11/25 05:02:14;;;;;;;21.60;7.57;;;;;;;;;;5024621;28;20212;-77
2022/11/25 05:04:42;;;;;;;18.73;7.43;;;;;;;;;;5032003;28;20128;-78
2022/11/25 05:07:08;;;;;;;13.30;7.00;;;;;;;;;;5032867;28;20061;-76
2022/11/25 05:09:33;;;;;;;20.23;8.33;;;;;;;;;;5032839;28;20057;-78
2022/11/25 05:11:59;;;;;;;17.73;9.07;;;;;;;;;;5015029;28;20075;-78
2022/11/25 05:14:25;;;;;;;17.30;8.53;;;;;;;;;;5032858;28;20450;-77
2022/11/25 05:16:51;;;;;;;16.57;8.23;;;;;;;;;;5033377;28;20083;-77
2022/11/25 05:19:16;;;;;;;12.23;7.23;;;;;;;;;;5032438;28;20037;-77
2022/11/25 05:21:42;;;;;;;20.07;8.50;;;;;;;;;;5014512;28;20128;-77
2022/11/25 05:24:08;;;;;;;22.83;8.80;;;;;;;;;;5032653;28;20465;-77
2022/11/25 05:26:33;;;;;;;17.90;7.70;;;;;;;;;;5032839;28;20033;-77
2022/11/25 05:28:59;;;;;;;19.43;8.00;;;;;;;;;;5014770;28;20029;-77
2022/11/25 05:31:24;;;;;;;16.43;8.40;;;;;;;;;;5033342;28;20025;-78
2022/11/25 05:33:50;;;;;;;21.20;7.83;;;;;;;;;;5014430;28;20031;-77
2022/11/25 05:36:15;;;;;;;18.53;8.30;;;;;;;;;;5032251;28;20039;-78
2022/11/25 05:38:41;;;;;;;30.77;10.43;;;;;;;;;;5014453;28;20036;-79
2022/11/25 05:41:07;;;;;;;19.27;8.50;;;;;;;;;;5031101;28;20396;-77
2022/11/25 05:43:33;;;;;;;22.37;7.77;;;;;;;;;;5032444;28;20026;-78
2022/11/25 05:46:03;;;;;;;17.97;7.63;;;;;;;;;;5032087;28;20049;-78
2022/11/25 05:48:29;;;;;;;15.43;8.07;;;;;;;;;;5014772;28;20341;-78
2022/11/25 05:50:59;;;;;;;14.23;7.97;;;;;;;;;;5014136;28;20029;-79
2022/11/25 05:53:26;;;;;;;16.63;8.27;;;;;;;;;;5013716;28;20029;-77
2022/11/25 05:55:56;;;;;;;22.37;8.07;;;;;;;;;;5013793;28;20124;-78
2022/11/25 05:58:23;;;;;;;16.13;7.80;;;;;;;;;;5013661;28;20029;-78
2022/11/25 06:00:48;;;;;;;28.60;13.73;;;;;;;;;;5013802;28;20159;-79
2022/11/25 06:03:14;;;;;;;26.77;12.60;;;;;;;;;;5009841;28;20580;-77
2022/11/25 06:05:40;;;;;;;26.67;10.07;;;;;;;;;;5010585;28;20056;-76
2022/11/25 06:08:06;;;;;;;38.07;16.00;;;;;;;;;;5012990;28;20038;-78
2022/11/25 06:10:37;;;;;;;22.53;10.40;;;;;;;;;;5007990;28;20144;-79
2022/11/25 06:13:02;;;;;;;22.00;9.50;;;;;;;;;;5024824;28;20037;-75
2022/11/25 06:15:28;;;;;;;15.40;8.93;;;;;;;;;;5023459;28;20037;-73
2022/11/25 06:17:56;;;;;;;14.47;7.33;;;;;;;;;;5026277;28;20040;-79
2022/11/25 06:20:21;;;;;;;18.20;8.57;;;;;;;;;;5036341;28;20033;-75
2022/11/25 06:22:47;;;;;;;27.60;8.67;;;;;;;;;;5024683;28;20057;-76
2022/11/25 06:25:12;;;;;;;15.77;8.23;;;;;;;;;;5017650;28;20036;-78
2022/11/25 06:27:38;;;;;;;16.40;8.50;;;;;;;;;;5020569;28;20033;-75
2022/11/25 06:30:04;;;;;;;19.80;8.63;;;;;;;;;;5015833;28;20033;-75
2022/11/25 06:32:29;;;;;;;23.70;12.57;;;;;;;;;;5020562;28;20133;-74
2022/11/25 06:34:55;;;;;;;20.20;9.80;;;;;;;;;;5017739;28;20437;-75
2022/11/25 06:37:20;;;;;;;19.23;9.47;;;;;;;;;;5013870;28;20394;-76
2022/11/25 06:39:46;;;;;;;21.57;9.67;;;;;;;;;;5032531;28;20048;-75
2022/11/25 06:42:11;;;;;;;22.07;11.30;;;;;;;;;;5010267;28;20470;-79
2022/11/25 06:44:37;;;;;;;25.10;10.53;;;;;;;;;;5041691;28;20490;-78
2022/11/25 06:47:02;;;;;;;20.50;8.97;;;;;;;;;;5021179;28;20034;-77
2022/11/25 06:49:29;;;;;;;22.10;10.40;;;;;;;;;;5015318;28;20132;-80
2022/11/25 06:51:55;;;;;;;17.33;8.67;;;;;;;;;;5030307;28;20021;-82
2022/11/25 06:54:20;;;;;;;17.77;9.57;;;;;;;;;;5027698;28;20095;-73
2022/11/25 06:56:50;;;;;;;21.70;9.77;;;;;;;;;;5036531;28;20450;-77
2022/11/25 06:59:17;;;;;;;21.20;10.73;;;;;;;;;;5011005;28;20108;-85
2022/11/25 07:01:43;;;;;;;18.47;10.17;;;;;;;;;;5009184;28;20030;-76
2022/11/25 07:04:08;;;;;;;22.83;11.50;;;;;;;;;;5012816;28;20020;-75
2022/11/25 07:06:34;;;;;;;20.87;10.83;;;;;;;;;;5023287;28;20324;-77
2022/11/25 07:09:00;;;;;;;22.20;10.13;;;;;;;;;;5014462;28;20108;-77
2022/11/25 07:11:31;;;;;;;21.63;10.43;;;;;;;;;;5034504;28;20122;-77
2022/11/25 07:14:00;;;;;;;22.20;11.33;;;;;;;;;;5022405;28;20491;-77
2022/11/25 07:16:26;;;;;;;24.37;12.37;;;;;;;;;;4999944;28;20133;-78
2022/11/25 07:18:52;;;;;;;25.73;10.97;;;;;;;;;;5011249;28;20136;-79
2022/11/25 07:21:23;;;;;;;31.93;11.27;;;;;;;;;;5016153;28;20125;-85
2022/11/25 07:23:50;;;;;;;29.87;14.00;;;;;;;;;;5009697;28;20045;-76
2022/11/25 07:26:25;;;;;;;27.73;11.73;;;;;;;;;;5025388;28;20367;-77
2022/11/25 07:28:52;;;;;;;24.53;11.20;;;;;;;;;;5007464;28;20030;-77
2022/11/25 07:31:21;;;;;;;36.17;11.80;;;;;;;;;;5011937;28;20029;-76
2022/11/25 07:33:47;;;;;;;28.27;11.20;;;;;;;;;;5036156;28;20033;-76
2022/11/25 07:36:13;;;;;;;21.20;9.47;;;;;;;;;;5013540;28;20026;-78
2022/11/25 07:38:40;;;;;;;26.57;9.57;;;;;;;;;;5028606;28;20029;-79
2022/11/25 07:41:07;;;;;;;25.83;10.10;;;;;;;;;;5025059;28;20034;-79
2022/11/25 07:43:33;;;;;;;20.27;9.40;;;;;;;;;;5010816;28;20324;-77
2022/11/25 07:46:17;;;;;;;20.73;9.53;;;;;;;;;;5008348;28;20029;-79
2022/11/25 07:48:43;;;;;;;21.23;9.87;;;;;;;;;;5014800;28;20014;-75
2022/11/25 07:51:18;;;;;;;21.73;10.37;;;;;;;;;;5009985;28;20025;-80
2022/11/25 07:53:44;;;;;;;19.33;9.10;;;;;;;;;;5003606;28;20035;-77
2022/11/25 07:56:13;;;;;;;25.20;9.60;;;;;;;;;;5013803;28;20026;-81
2022/11/25 07:58:43;;;;;;;25.40;9.47;;;;;;;;;;5025110;28;20117;-78
2022/11/25 08:01:11;;;;;;;23.40;9.17;;;;;;;;;;5034153;28;20045;-81
2022/11/25 08:03:39;;;;;;;26.10;10.23;;;;;;;;;;5025535;28;20029;-75
2022/11/25 08:06:08;;;;;;;26.57;9.40;;;;;;;;;;5006525;28;20076;-78
2022/11/25 08:08:36;;;;;;;21.80;10.63;;;;;;;;;;5018144;28;20547;-77
2022/11/25 08:11:09;;;;;;;24.50;9.00;;;;;;;;;;4995561;28;20616;-75
2022/11/25 08:13:35;;;;;;;18.80;8.27;;;;;;;;;;5021080;28;20034;-76
2022/11/25 08:16:01;;;;;;;20.50;10.83;;;;;;;;;;5033501;28;20110;-76
2022/11/25 08:18:27;;;;;;;23.10;8.50;;;;;;;;;;5017314;28;20059;-77
2022/11/25 08:20:58;;;;;;;23.87;9.53;;;;;;;;;;5036741;28;20745;-79
2022/11/25 08:23:25;;;;;;;19.88;9.05;;;;;;;;;;5024635;28;20410;-77
2022/11/25 08:25:51;;;;;;;26.47;10.37;;;;;;;;;;5011409;28;20049;-75
2022/11/25 08:28:16;;;;;;;20.40;9.27;;;;;;;;;;5000701;28;20175;-76
2022/11/25 08:30:42;;;;;;;22.37;9.30;;;;;;;;;;5021651;28;20287;-81
2022/11/25 08:33:07;;;;;;;18.80;9.60;;;;;;;;;;5027739;28;20040;-75
2022/11/25 08:35:36;;;;;;;16.87;9.03;;;;;;;;;;5025853;28;20636;-79
2022/11/25 08:38:07;;;;;;;20.83;8.60;;;;;;;;;;5017600;28;20034;-77
2022/11/25 08:40:35;;;;;;;17.13;9.63;;;;;;;;;;5023714;28;20047;-76
2022/11/25 08:43:04;;;;;;;17.13;8.97;;;;;;;;;;5021623;28;20144;-86
2022/11/25 08:45:34;;;;;;;20.00;8.97;;;;;;;;;;5016205;28;20037;-77
2022/11/25 08:48:00;;;;;;;28.70;11.00;;;;;;;;;;5034104;28;20399;-79
2022/11/25 08:50:25;;;;;;;21.33;9.83;;;;;;;;;;5035616;28;20042;-81
2022/11/25 08:52:51;;;;;;;25.77;11.13;;;;;;;;;;5022440;28;20037;-77
2022/11/25 08:55:17;;;;;;;28.07;10.27;;;;;;;;;;5016450;28;20040;-76
2022/11/25 08:57:43;;;;;;;21.27;9.17;;;;;;;;;;5029213;28;20103;-79
2022/11/25 09:00:10;;;;;;;20.77;10.47;;;;;;;;;;5006163;28;20034;-78
2022/11/25 09:02:35;;;;;;;22.23;10.13;;;;;;;;;;5008149;28;20500;-76
2022/11/25 09:05:01;;;;;;;19.83;10.50;;;;;;;;;;5007354;28;20038;-78
2022/11/25 09:07:26;;;;;;;23.03;9.97;;;;;;;;;;5013810;28;20079;-76
2022/11/25 09:09:52;;;;;;;23.37;10.47;;;;;;;;;;5014006;28;20017;-76
2022/11/25 09:12:18;;;;;;;21.47;11.03;;;;;;;;;;5030131;28;20497;-75
2022/11/25 09:14:44;;;;;;;32.93;12.03;;;;;;;;;;5027293;28;20061;-78
2022/11/25 09:17:11;;;;;;;19.07;10.10;;;;;;;;;;4994244;28;20068;-76
2022/11/25 09:19:37;;;;;;;20.93;10.47;;;;;;;;;;5039635;28;20379;-77
2022/11/25 09:22:02;;;;;;;24.97;9.33;;;;;;;;;;5014757;28;20035;-77
2022/11/25 09:24:28;;;;;;;29.17;10.60;;;;;;;;;;5009108;28;20469;-74
2022/11/25 09:26:54;;;;;;;22.50;10.27;;;;;;;;;;5027824;28;20060;-76
2022/11/25 09:29:24;;;;;;;22.63;10.33;;;;;;;;;;5018045;28;20064;-78
2022/11/25 09:31:49;;;;;;;23.00;11.13;;;;;;;;;;5034008;28;20079;-75
2022/11/25 09:34:15;;;;;;;23.17;11.10;;;;;;;;;;5015430;28;20038;-76
2022/11/25 09:36:43;;;;;;;26.50;10.70;;;;;;;;;;5012728;28;20032;-75
2022/11/25 09:39:09;;;;;;;22.67;10.13;;;;;;;;;;5045084;28;20028;-76
2022/11/25 09:48:01;;;;;;;20.10;9.07;;;;;;;;;;5022939;28;20131;-74
2022/11/25 09:50:33;;;;;;;23.07;9.87;;;;;;;;;;5039896;28;20068;-80
2022/11/25 09:53:10;;;;;;;21.92;10.07;;;;;;;;;;5028767;28;20053;-76
2022/11/25 09:55:46;;;;;;;15.57;9.60;;;;;;;;;;5025336;28;20091;-73
2022/11/25 09:58:47;;;;;;;19.13;9.70;;;;;;;;;;5014783;28;20029;-77
2022/11/25 10:01:20;;;;;;;21.30;9.07;;;;;;;;;;5005274;28;20042;-79
2022/11/25 10:03:51;;;;;;;23.90;11.17;;;;;;;;;;5023369;28;20521;-78
2022/11/25 10:06:30;;;;;;;20.33;9.60;;;;;;;;;;5026093;28;20049;-77
2022/11/25 10:09:11;;;;;;;26.73;10.57;;;;;;;;;;5017263;28;20045;-76
2022/11/25 10:12:18;;;;;;;25.27;11.13;;;;;;;;;;5028704;28;20476;-77
2022/11/25 10:14:50;;;;;;;19.30;9.55;;;;;;;;;;4904662;29;20051;-78
2022/11/25 10:17:31;;;;;;;19.95;9.65;;;;;;;;;;4931804;28;20561;-79
2022/11/25 10:20:11;;;;;;;23.30;8.80;;;;;;;;;;5016234;28;20043;-78
2022/11/25 10:22:42;;;;;;;20.40;10.13;;;;;;;;;;5009251;28;20120;-75
2022/11/25 10:25:19;;;;;;;20.23;9.55;;;;;;;;;;5009495;28;20750;-74
2022/11/25 10:28:01;;;;;;;24.10;10.18;;;;;;;;;;5026221;28;20061;-79
2022/11/25 10:30:31;;;;;;;16.75;8.77;;;;;;;;;;5042303;28;20112;-80
2022/11/25 10:33:18;;;;;;;23.80;10.27;;;;;;;;;;5037769;28;20188;-81
2022/11/25 10:35:49;;;;;;;25.83;10.32;;;;;;;;;;5025226;28;20025;-78
2022/11/25 10:38:24;;;;;;;22.48;9.77;;;;;;;;;;5031513;28;20058;-79
2022/11/25 10:40:51;;;;;;;16.90;9.32;;;;;;;;;;5015559;28;20390;-78
2022/11/25 10:43:17;;;;;;;20.50;9.93;;;;;;;;;;5042312;28;20021;-79
2022/11/25 10:45:54;;;;;;;14.98;9.02;;;;;;;;;;5031850;28;20036;-79
2022/11/25 10:48:45;;;;;;;26.27;10.25;;;;;;;;;;5024012;28;20052;-78
2022/11/25 10:51:34;;;;;;;18.27;8.90;;;;;;;;;;5017256;28;20536;-79
2022/11/25 10:54:19;;;;;;;26.83;9.48;;;;;;;;;;5006650;28;20033;-79
2022/11/25 10:56:50;;;;;;;20.30;10.38;;;;;;;;;;5036910;28;20129;-79
2022/11/25 10:59:40;;;;;;;17.42;9.73;;;;;;;;;;5010566;28;20130;-80
2022/11/25 11:02:20;;;;;;;19.57;10.37;;;;;;;;;;5019694;28;20033;-77
2022/11/25 11:05:09;;;;;;;26.77;10.90;;;;;;;;;;5027817;28;20555;-79
2022/11/25 11:07:41;;;;;;;19.13;9.68;;;;;;;;;;5020742;28;20095;-79
2022/11/25 11:10:23;;;;;;;22.35;10.13;;;;;;;;;;5036843;28;20524;-79
2022/11/25 11:13:02;;;;;;;23.83;9.85;;;;;;;;;;5021064;28;20041;-79
2022/11/25 11:15:39;;;;;;;17.23;8.40;;;;;;;;;;5005399;28;20033;-79
2022/11/25 11:18:49;;;;;;;25.38;11.02;;;;;;;;;;5037513;28;20029;-79
2022/11/25 11:21:40;;;;;;;26.63;9.05;;;;;;;;;;5011768;28;20123;-82
2022/11/25 11:24:34;;;;;;;19.83;8.07;;;;;;;;;;4990999;28;20045;-79
2022/11/25 11:27:19;;;;;;;19.80;8.63;;;;;;;;;;5028219;28;20174;-75
2022/11/25 11:29:46;;;;;;;23.33;9.30;;;;;;;;;;5029864;28;20028;-75
2022/11/25 11:32:27;;;;;;;19.40;9.70;;;;;;;;;;5004328;28;20025;-79
2022/11/25 11:34:59;;;;;;;26.90;10.23;;;;;;;;;;5007376;28;20028;-77
2022/11/25 11:37:40;;;;;;;16.00;8.60;;;;;;;;;;5009239;28;20041;-76
2022/11/25 11:40:45;;;;;;;20.17;9.82;;;;;;;;;;5021791;28;20607;-76
2022/11/25 11:43:25;;;;;;;22.92;9.40;;;;;;;;;;5026046;28;20040;-77
2022/11/25 11:46:20;;;;;;;14.95;8.55;;;;;;;;;;5026717;28;20026;-79
2022/11/25 11:49:15;;;;;;;11.50;7.15;;;;;;;;;;5027239;28;20032;-77
2022/11/25 11:52:04;;;;;;;18.15;9.32;;;;;;;;;;5008969;28;20115;-78
2022/11/25 11:54:40;;;;;;;27.45;9.45;;;;;;;;;;5004261;28;20037;-78
2022/11/25 11:57:43;;;;;;;23.45;9.85;;;;;;;;;;5028885;28;20070;-79
2022/11/25 12:00:14;;;;;;;19.95;8.18;;;;;;;;;;5022436;28;20387;-78
2022/11/25 12:03:17;;;;;;;20.02;8.02;;;;;;;;;;5022967;28;20071;-76
2022/11/25 12:05:54;;;;;;;18.30;7.05;;;;;;;;;;5025747;28;20041;-79
2022/11/25 12:08:58;;;;;;;18.02;7.90;;;;;;;;;;5007512;28;20052;-80
2022/11/25 12:11:37;;;;;;;20.73;7.47;;;;;;;;;;5023563;28;20033;-76
2022/11/25 12:14:12;;;;;;;21.15;8.52;;;;;;;;;;5027228;28;20056;-77
2022/11/25 12:16:58;;;;;;;13.10;7.32;;;;;;;;;;5031804;28;20079;-78
2022/11/25 12:19:35;;;;;;;20.92;8.82;;;;;;;;;;5025707;28;20382;-76
2022/11/25 12:22:18;;;;;;;14.93;7.25;;;;;;;;;;5022930;28;20087;-76
2022/11/25 12:25:11;;;;;;;19.60;8.38;;;;;;;;;;5029339;28;20184;-75
2022/11/25 12:27:43;;;;;;;14.00;6.55;;;;;;;;;;5016477;28;20047;-79
2022/11/25 12:30:14;;;;;;;25.38;10.15;;;;;;;;;;5028256;28;20032;-79
2022/11/25 12:33:00;;;;;;;16.55;6.13;;;;;;;;;;5013886;28;20037;-80
2022/11/25 12:35:45;;;;;;;13.43;6.20;;;;;;;;;;5043262;28;20034;-77
2022/11/25 12:38:37;;;;;;;10.02;6.93;;;;;;;;;;5004597;28;20175;-76
2022/11/25 12:41:29;;;;;;;16.60;9.23;;;;;;;;;;5011254;28;20128;-77
2022/11/25 12:44:13;;;;;;;25.45;9.25;;;;;;;;;;5017473;28;20104;-75
2022/11/25 12:46:45;;;;;;;28.08;12.95;;;;;;;;;;5028095;28;20036;-78
2022/11/25 12:49:18;;;;;;;11.43;5.95;;;;;;;;;;5036248;28;20030;-79
2022/11/25 12:52:05;;;;;;;23.52;7.25;;;;;;;;;;5046115;28;20120;-75
2022/11/25 12:54:59;;;;;;;15.35;6.18;;;;;;;;;;5026306;28;20121;-76
2022/11/25 12:58:02;;;;;;;19.48;6.50;;;;;;;;;;5026991;28;20029;-77
2022/11/25 13:00:44;;;;;;;13.10;6.47;;;;;;;;;;4997488;28;20068;-77
2022/11/25 13:03:43;;;;;;;18.02;6.88;;;;;;;;;;5027513;28;20385;-78
2022/11/25 13:06:38;;;;;;;13.18;6.00;;;;;;;;;;5030430;28;20535;-76
2022/11/25 13:09:22;;;;;;;18.55;6.13;;;;;;;;;;5023143;28;20041;-76
2022/11/25 13:12:06;;;;;;;12.60;6.43;;;;;;;;;;5030736;28;20480;-78
2022/11/25 13:15:00;;;;;;;42.13;9.70;;;;;;;;;;5008496;28;20030;-77
2022/11/25 13:17:27;;;;;;;16.17;7.80;;;;;;;;;;5030006;28;20036;-78
2022/11/25 13:20:27;;;;;;;13.57;7.07;;;;;;;;;;5017175;28;20030;-78
2022/11/25 13:23:06;;;;;;;16.17;7.38;;;;;;;;;;5027383;28;20079;-77
2022/11/25 13:25:33;;;;;;;22.08;8.80;;;;;;;;;;5009497;28;20487;-77
2022/11/25 13:28:00;;;;;;;21.92;8.40;;;;;;;;;;5032861;28;20424;-77
2022/11/25 13:30:31;;;;;;;21.13;8.40;;;;;;;;;;5025345;28;20021;-78
2022/11/25 13:33:26;;;;;;;16.85;7.38;;;;;;;;;;5037446;28;20048;-77
2022/11/25 13:35:55;;;;;;;20.00;7.88;;;;;;;;;;4984236;28;20029;-76
2022/11/25 13:38:33;;;;;;;20.85;7.95;;;;;;;;;;4994649;28;20088;-76
2022/11/25 13:41:02;;;;;;;25.45;8.18;;;;;;;;;;5037653;28;20064;-76
2022/11/25 13:43:28;;;;;;;20.90;8.10;;;;;;;;;;5012108;28;20029;-77
2022/11/25 13:45:54;;;;;;;19.52;7.50;;;;;;;;;;5033697;28;20036;-79
2022/11/25 13:48:28;;;;;;;18.02;7.25;;;;;;;;;;5014453;28;20568;-76
2022/11/25 13:51:22;;;;;;;24.17;6.80;;;;;;;;;;5029101;28;20085;-79
2022/11/25 13:53:58;;;;;;;29.98;8.27;;;;;;;;;;5022747;28;20021;-77
2022/11/25 13:56:30;;;;;;;28.70;12.48;;;;;;;;;;5014091;28;20112;-74
2022/11/25 13:59:32;;;;;;;17.20;8.13;;;;;;;;;;5011466;28;20052;-76
2022/11/25 14:02:26;;;;;;;17.27;8.10;;;;;;;;;;5023336;28;20045;-76
2022/11/25 14:05:10;;;;;;;18.50;8.40;;;;;;;;;;5009575;28;20045;-76
2022/11/25 14:07:51;;;;;;;22.83;9.20;;;;;;;;;;5031547;28;20094;-77
2022/11/25 14:10:35;;;;;;;22.63;8.15;;;;;;;;;;5024208;28;20159;-73
2022/11/25 14:13:26;;;;;;;21.20;8.93;;;;;;;;;;5024566;28;20022;-76
2022/11/25 14:16:23;;;;;;;18.85;7.68;;;;;;;;;;5022036;28;20037;-75
2022/11/25 14:19:33;;;;;;;18.13;8.65;;;;;;;;;;5010826;28;20097;-74
2022/11/25 14:22:01;;;;;;;24.30;10.18;;;;;;;;;;5030700;28;20050;-74
2022/11/25 14:24:41;;;;;;;20.45;10.13;;;;;;;;;;5023147;28;20417;-75
2022/11/25 14:27:21;;;;;;;19.75;9.63;;;;;;;;;;5006822;28;20338;-75
2022/11/25 14:30:08;;;;;;;16.50;8.23;;;;;;;;;;5029623;28;20018;-76
2022/11/25 14:32:52;;;;;;;23.58;8.75;;;;;;;;;;5017650;28;20417;-76
2022/11/25 14:35:26;;;;;;;21.48;9.32;;;;;;;;;;5008902;28;20033;-74
2022/11/25 14:38:14;;;;;;;24.35;9.60;;;;;;;;;;5015648;28;20446;-73
2022/11/25 14:40:50;;;;;;;15.73;8.18;;;;;;;;;;5008929;28;20033;-77
2022/11/25 14:43:20;;;;;;;16.38;8.15;;;;;;;;;;5031304;28;20065;-77
2022/11/25 14:45:46;;;;;;;18.33;8.43;;;;;;;;;;5026678;28;20037;-75
2022/11/25 14:48:12;;;;;;;32.65;13.02;;;;;;;;;;5030179;28;20017;-75
2022/11/25 14:50:38;;;;;;;24.75;10.18;;;;;;;;;;5028711;28;20524;-76
2022/11/25 14:53:08;;;;;;;25.67;9.70;;;;;;;;;;5025416;28;20029;-75
2022/11/25 14:55:35;;;;;;;18.55;8.93;;;;;;;;;;5016735;28;20037;-76
2022/11/25 14:58:02;;;;;;;18.95;9.75;;;;;;;;;;5044648;28;20351;-74
2022/11/25 15:00:27;;;;;;;28.83;11.32;;;;;;;;;;5030281;28;20118;-76
2022/11/25 15:03:01;;;;;;;37.13;9.88;;;;;;;;;;5019508;28;20052;-75
2022/11/25 15:05:35;;;;;;;34.20;10.55;;;;;;;;;;5011417;28;20400;-76
2022/11/25 15:08:14;;;;;;;20.00;9.73;;;;;;;;;;5012206;28;20033;-75
2022/11/25 15:10:59;;;;;;;26.30;10.10;;;;;;;;;;5025240;28;20061;-77